sensor_id;sensor_type;location;lat;lon;timestamp;P1;durP1;ratioP1;P2;durP2;ratioP2
3939;SDS011;1984;48.312;9.244;2022-09-12T00:01:24;12.63;;;3.60;;
3939;SDS011;1984;48.312;9.244;2022-09-12T00:03:52;2.83;;;2.63;;
3939;SDS011;1984;48.312;9.244;2022-09-12T00:06:24;8.17;;;3.60;;
3939;SDS011;1984;48.312;9.244;2022-09-12T00:08:56;3.77;;;3.47;;
3939;SDS011;1984;48.312;9.244;2022-09-12T00:11:23;3.00;;;2.80;;
3939;SDS011;1984;48.312;9.244;2022-09-12T00:13:50;2.90;;;2.70;;
3939;SDS011;1984;48.312;9.244;2022-09-12T00:16:20;2.90;;;2.70;;
3939;SDS011;1984;48.312;9.244;2022-09-12T00:18:47;4.80;;;2.50;;
3939;SDS011;1984;48.312;9.244;2022-09-12T00:21:14;3.13;;;2.93;;
3939;SDS011;1984;48.312;9.244;2022-09-12T00:23:40;2.83;;;2.63;;
3939;SDS011;1984;48.312;9.244;2022-09-12T00:26:06;2.60;;;2.43;;
3939;SDS011;1984;48.312;9.244;2022-09-12T00:28:33;2.60;;;2.43;;
3939;SDS011;1984;48.312;9.244;2022-09-12T00:31:02;2.63;;;2.43;;
3939;SDS011;1984;48.312;9.244;2022-09-12T00:33:30;3.30;;;3.10;;
3939;SDS011;1984;48.312;9.244;2022-09-12T00:35:56;2.50;;;2.30;;
3939;SDS011;1984;48.312;9.244;2022-09-12T00:38:21;3.10;;;2.80;;
3939;SDS011;1984;48.312;9.244;2022-09-12T00:40:47;2.80;;;2.60;;
3939;SDS011;1984;48.312;9.244;2022-09-12T00:43:14;2.50;;;2.30;;
3939;SDS011;1984;48.312;9.244;2022-09-12T00:46:01;2.63;;;2.43;;
3939;SDS011;1984;48.312;9.244;2022-09-12T00:48:54;3.10;;;2.90;;
3939;SDS011;1984;48.312;9.244;2022-09-12T00:51:23;5.00;;;3.40;;
3939;SDS011;1984;48.312;9.244;2022-09-12T00:53:50;3.23;;;2.57;;
3939;SDS011;1984;48.312;9.244;2022-09-12T00:56:17;2.90;;;2.70;;
3939;SDS011;1984;48.312;9.244;2022-09-12T00:58:55;3.37;;;3.07;;
3939;SDS011;1984;48.312;9.244;2022-09-12T01:01:25;4.40;;;2.80;;
3939;SDS011;1984;48.312;9.244;2022-09-12T01:03:51;8.30;;;2.80;;
3939;SDS011;1984;48.312;9.244;2022-09-12T01:08:46;4.47;;;2.60;;
3939;SDS011;1984;48.312;9.244;2022-09-12T01:11:12;3.10;;;2.80;;
3939;SDS011;1984;48.312;9.244;2022-09-12T01:13:38;7.30;;;2.80;;
3939;SDS011;1984;48.312;9.244;2022-09-12T01:16:05;2.73;;;2.53;;
3939;SDS011;1984;48.312;9.244;2022-09-12T01:20:58;4.37;;;2.53;;
3939;SDS011;1984;48.312;9.244;2022-09-12T01:26:57;15.93;;;3.20;;
3939;SDS011;1984;48.312;9.244;2022-09-12T01:29:43;2.70;;;2.50;;
3939;SDS011;1984;48.312;9.244;2022-09-12T01:32:24;3.70;;;3.40;;
3939;SDS011;1984;48.312;9.244;2022-09-12T01:37:36;3.83;;;3.50;;
3939;SDS011;1984;48.312;9.244;2022-09-12T01:45:46;3.13;;;2.90;;
3939;SDS011;1984;48.312;9.244;2022-09-12T01:48:32;3.57;;;3.20;;
3939;SDS011;1984;48.312;9.244;2022-09-12T01:51:23;4.80;;;2.50;;
3939;SDS011;1984;48.312;9.244;2022-09-12T01:53:57;3.43;;;3.13;;
3939;SDS011;1984;48.312;9.244;2022-09-12T01:56:28;2.90;;;2.70;;
3939;SDS011;1984;48.312;9.244;2022-09-12T01:59:02;4.30;;;2.60;;
3939;SDS011;1984;48.312;9.244;2022-09-12T02:01:35;4.10;;;2.90;;
3939;SDS011;1984;48.312;9.244;2022-09-12T02:04:20;2.70;;;2.50;;
3939;SDS011;1984;48.312;9.244;2022-09-12T02:06:54;2.93;;;2.73;;
3939;SDS011;1984;48.312;9.244;2022-09-12T02:09:25;2.83;;;2.63;;
3939;SDS011;1984;48.312;9.244;2022-09-12T02:12:09;3.70;;;3.07;;
3939;SDS011;1984;48.312;9.244;2022-09-12T02:14:58;2.77;;;2.57;;
3939;SDS011;1984;48.312;9.244;2022-09-12T02:17:27;2.33;;;2.17;;
3939;SDS011;1984;48.312;9.244;2022-09-12T02:19:56;2.97;;;2.67;;
3939;SDS011;1984;48.312;9.244;2022-09-12T02:22:26;8.23;;;3.10;;
3939;SDS011;1984;48.312;9.244;2022-09-12T02:24:54;2.83;;;2.63;;
3939;SDS011;1984;48.312;9.244;2022-09-12T02:27:25;3.20;;;2.90;;
3939;SDS011;1984;48.312;9.244;2022-09-12T02:30:12;2.80;;;2.60;;
3939;SDS011;1984;48.312;9.244;2022-09-12T02:33:02;3.07;;;2.77;;
3939;SDS011;1984;48.312;9.244;2022-09-12T02:40:39;4.10;;;3.20;;
3939;SDS011;1984;48.312;9.244;2022-09-12T02:43:05;2.70;;;2.50;;
3939;SDS011;1984;48.312;9.244;2022-09-12T02:45:31;4.23;;;2.80;;
3939;SDS011;1984;48.312;9.244;2022-09-12T02:50:28;3.10;;;2.80;;
3939;SDS011;1984;48.312;9.244;2022-09-12T02:52:54;2.77;;;2.53;;
3939;SDS011;1984;48.312;9.244;2022-09-12T02:55:24;3.30;;;3.00;;
3939;SDS011;1984;48.312;9.244;2022-09-12T02:57:50;4.17;;;3.23;;
3939;SDS011;1984;48.312;9.244;2022-09-12T03:00:16;6.37;;;3.10;;
3939;SDS011;1984;48.312;9.244;2022-09-12T03:05:49;3.10;;;2.90;;
3939;SDS011;1984;48.312;9.244;2022-09-12T03:13:58;4.33;;;3.27;;
3939;SDS011;1984;48.312;9.244;2022-09-12T03:16:50;3.20;;;2.87;;
3939;SDS011;1984;48.312;9.244;2022-09-12T03:19:46;3.63;;;2.70;;
3939;SDS011;1984;48.312;9.244;2022-09-12T03:25:22;7.00;;;3.13;;
3939;SDS011;1984;48.312;9.244;2022-09-12T03:28:19;4.97;;;2.90;;
3939;SDS011;1984;48.312;9.244;2022-09-12T03:30:47;7.10;;;3.80;;
3939;SDS011;1984;48.312;9.244;2022-09-12T03:33:16;3.90;;;3.17;;
3939;SDS011;1984;48.312;9.244;2022-09-12T03:35:43;3.70;;;3.10;;
3939;SDS011;1984;48.312;9.244;2022-09-12T03:38:10;5.10;;;2.60;;
3939;SDS011;1984;48.312;9.244;2022-09-12T03:40:36;3.93;;;3.63;;
3939;SDS011;1984;48.312;9.244;2022-09-12T03:43:03;7.33;;;3.03;;
3939;SDS011;1984;48.312;9.244;2022-09-12T03:45:30;3.80;;;3.50;;
3939;SDS011;1984;48.312;9.244;2022-09-12T03:47:55;6.90;;;4.03;;
3939;SDS011;1984;48.312;9.244;2022-09-12T03:50:21;3.90;;;3.50;;
3939;SDS011;1984;48.312;9.244;2022-09-12T03:52:47;6.63;;;4.03;;
3939;SDS011;1984;48.312;9.244;2022-09-12T03:55:12;9.47;;;4.00;;
3939;SDS011;1984;48.312;9.244;2022-09-12T03:57:38;11.93;;;3.50;;
3939;SDS011;1984;48.312;9.244;2022-09-12T04:00:04;3.67;;;3.20;;
3939;SDS011;1984;48.312;9.244;2022-09-12T04:02:32;9.33;;;2.80;;
3939;SDS011;1984;48.312;9.244;2022-09-12T04:04:58;3.67;;;3.30;;
3939;SDS011;1984;48.312;9.244;2022-09-12T04:07:24;5.17;;;2.97;;
3939;SDS011;1984;48.312;9.244;2022-09-12T04:09:50;4.23;;;3.33;;
3939;SDS011;1984;48.312;9.244;2022-09-12T04:12:17;3.80;;;3.37;;
3939;SDS011;1984;48.312;9.244;2022-09-12T04:14:43;6.70;;;3.00;;
3939;SDS011;1984;48.312;9.244;2022-09-12T04:17:08;3.50;;;3.23;;
3939;SDS011;1984;48.312;9.244;2022-09-12T04:19:34;2.73;;;2.53;;
3939;SDS011;1984;48.312;9.244;2022-09-12T04:21:59;3.97;;;3.60;;
3939;SDS011;1984;48.312;9.244;2022-09-12T04:24:25;6.23;;;3.63;;
3939;SDS011;1984;48.312;9.244;2022-09-12T04:26:51;4.17;;;3.80;;
3939;SDS011;1984;48.312;9.244;2022-09-12T04:29:16;4.20;;;3.23;;
3939;SDS011;1984;48.312;9.244;2022-09-12T04:31:42;4.87;;;3.27;;
3939;SDS011;1984;48.312;9.244;2022-09-12T04:34:07;3.03;;;2.73;;
3939;SDS011;1984;48.312;9.244;2022-09-12T04:36:33;3.10;;;2.83;;
3939;SDS011;1984;48.312;9.244;2022-09-12T04:39:00;4.07;;;3.60;;
3939;SDS011;1984;48.312;9.244;2022-09-12T04:41:28;4.83;;;3.77;;
3939;SDS011;1984;48.312;9.244;2022-09-12T04:44:02;6.40;;;3.50;;
3939;SDS011;1984;48.312;9.244;2022-09-12T04:46:31;6.00;;;3.33;;
3939;SDS011;1984;48.312;9.244;2022-09-12T04:48:59;11.53;;;4.00;;
3939;SDS011;1984;48.312;9.244;2022-09-12T04:51:26;5.40;;;3.80;;
3939;SDS011;1984;48.312;9.244;2022-09-12T04:53:56;16.13;;;3.30;;
3939;SDS011;1984;48.312;9.244;2022-09-12T04:56:23;8.83;;;3.87;;
3939;SDS011;1984;48.312;9.244;2022-09-12T04:58:49;5.30;;;4.03;;
3939;SDS011;1984;48.312;9.244;2022-09-12T05:01:15;7.60;;;4.03;;
3939;SDS011;1984;48.312;9.244;2022-09-12T05:03:42;13.63;;;4.47;;
3939;SDS011;1984;48.312;9.244;2022-09-12T05:06:09;10.83;;;3.40;;
3939;SDS011;1984;48.312;9.244;2022-09-12T05:08:37;6.33;;;4.10;;
3939;SDS011;1984;48.312;9.244;2022-09-12T05:11:04;4.67;;;3.80;;
3939;SDS011;1984;48.312;9.244;2022-09-12T05:13:32;7.13;;;4.20;;
3939;SDS011;1984;48.312;9.244;2022-09-12T05:15:59;5.70;;;4.27;;
3939;SDS011;1984;48.312;9.244;2022-09-12T05:18:26;26.90;;;5.33;;
3939;SDS011;1984;48.312;9.244;2022-09-12T05:20:53;9.97;;;4.10;;
3939;SDS011;1984;48.312;9.244;2022-09-12T05:23:19;11.97;;;4.53;;
3939;SDS011;1984;48.312;9.244;2022-09-12T05:25:52;8.10;;;3.80;;
3939;SDS011;1984;48.312;9.244;2022-09-12T05:28:19;7.17;;;4.17;;
3939;SDS011;1984;48.312;9.244;2022-09-12T05:30:45;6.43;;;3.83;;
3939;SDS011;1984;48.312;9.244;2022-09-12T05:33:11;19.37;;;4.93;;
3939;SDS011;1984;48.312;9.244;2022-09-12T05:35:37;25.03;;;4.23;;
3939;SDS011;1984;48.312;9.244;2022-09-12T05:38:04;5.53;;;4.53;;
3939;SDS011;1984;48.312;9.244;2022-09-12T05:40:30;9.83;;;3.90;;
3939;SDS011;1984;48.312;9.244;2022-09-12T05:42:56;18.10;;;4.60;;
3939;SDS011;1984;48.312;9.244;2022-09-12T05:45:22;10.60;;;4.13;;
3939;SDS011;1984;48.312;9.244;2022-09-12T05:47:47;15.00;;;4.40;;
3939;SDS011;1984;48.312;9.244;2022-09-12T05:50:13;4.70;;;3.80;;
3939;SDS011;1984;48.312;9.244;2022-09-12T05:52:39;4.33;;;3.10;;
3939;SDS011;1984;48.312;9.244;2022-09-12T05:55:05;5.97;;;4.30;;
3939;SDS011;1984;48.312;9.244;2022-09-12T05:57:30;5.33;;;4.43;;
3939;SDS011;1984;48.312;9.244;2022-09-12T05:59:57;14.37;;;3.70;;
3939;SDS011;1984;48.312;9.244;2022-09-12T06:02:23;6.47;;;3.50;;
3939;SDS011;1984;48.312;9.244;2022-09-12T06:04:48;4.37;;;3.27;;
3939;SDS011;1984;48.312;9.244;2022-09-12T06:07:14;3.83;;;3.20;;
3939;SDS011;1984;48.312;9.244;2022-09-12T06:09:39;2.80;;;2.60;;
3939;SDS011;1984;48.312;9.244;2022-09-12T06:12:05;3.73;;;3.33;;
3939;SDS011;1984;48.312;9.244;2022-09-12T06:14:31;3.53;;;3.23;;
3939;SDS011;1984;48.312;9.244;2022-09-12T06:16:57;3.67;;;3.37;;
3939;SDS011;1984;48.312;9.244;2022-09-12T06:19:23;4.50;;;3.67;;
3939;SDS011;1984;48.312;9.244;2022-09-12T06:21:51;7.13;;;3.30;;
3939;SDS011;1984;48.312;9.244;2022-09-12T06:24:17;4.30;;;3.30;;
3939;SDS011;1984;48.312;9.244;2022-09-12T06:26:44;4.00;;;3.60;;
3939;SDS011;1984;48.312;9.244;2022-09-12T06:29:11;5.10;;;3.90;;
3939;SDS011;1984;48.312;9.244;2022-09-12T06:31:38;7.80;;;4.80;;
3939;SDS011;1984;48.312;9.244;2022-09-12T06:34:06;5.73;;;4.80;;
3939;SDS011;1984;48.312;9.244;2022-09-12T06:36:33;6.90;;;5.30;;
3939;SDS011;1984;48.312;9.244;2022-09-12T06:39:20;5.97;;;4.80;;
3939;SDS011;1984;48.312;9.244;2022-09-12T06:41:47;5.53;;;4.70;;
3939;SDS011;1984;48.312;9.244;2022-09-12T06:44:15;6.33;;;4.97;;
3939;SDS011;1984;48.312;9.244;2022-09-12T06:46:42;5.43;;;4.20;;
3939;SDS011;1984;48.312;9.244;2022-09-12T06:49:08;5.33;;;4.73;;
3939;SDS011;1984;48.312;9.244;2022-09-12T06:51:34;6.33;;;4.53;;
3939;SDS011;1984;48.312;9.244;2022-09-12T06:54:00;5.03;;;4.33;;
3939;SDS011;1984;48.312;9.244;2022-09-12T06:56:26;4.20;;;3.60;;
3939;SDS011;1984;48.312;9.244;2022-09-12T06:58:52;4.20;;;3.20;;
3939;SDS011;1984;48.312;9.244;2022-09-12T07:01:21;5.17;;;3.23;;
3939;SDS011;1984;48.312;9.244;2022-09-12T07:03:51;3.50;;;3.20;;
3939;SDS011;1984;48.312;9.244;2022-09-12T07:06:19;3.17;;;2.97;;
3939;SDS011;1984;48.312;9.244;2022-09-12T07:08:46;5.47;;;3.10;;
3939;SDS011;1984;48.312;9.244;2022-09-12T07:11:16;6.23;;;5.00;;
3939;SDS011;1984;48.312;9.244;2022-09-12T07:13:45;24.37;;;13.50;;
3939;SDS011;1984;48.312;9.244;2022-09-12T07:16:12;35.10;;;17.00;;
3939;SDS011;1984;48.312;9.244;2022-09-12T07:18:38;20.00;;;12.83;;
3939;SDS011;1984;48.312;9.244;2022-09-12T07:21:05;18.30;;;10.90;;
3939;SDS011;1984;48.312;9.244;2022-09-12T07:23:33;13.50;;;9.00;;
3939;SDS011;1984;48.312;9.244;2022-09-12T07:25:59;17.37;;;10.43;;
3939;SDS011;1984;48.312;9.244;2022-09-12T07:28:25;15.50;;;9.30;;
3939;SDS011;1984;48.312;9.244;2022-09-12T07:30:52;13.80;;;7.80;;
3939;SDS011;1984;48.312;9.244;2022-09-12T07:33:22;7.00;;;5.00;;
3939;SDS011;1984;48.312;9.244;2022-09-12T07:35:51;12.57;;;4.07;;
3939;SDS011;1984;48.312;9.244;2022-09-12T07:38:18;5.57;;;4.93;;
3939;SDS011;1984;48.312;9.244;2022-09-12T07:40:44;5.73;;;3.30;;
3939;SDS011;1984;48.312;9.244;2022-09-12T07:43:10;2.80;;;2.60;;
3939;SDS011;1984;48.312;9.244;2022-09-12T07:45:36;5.07;;;4.10;;
3939;SDS011;1984;48.312;9.244;2022-09-12T07:48:02;6.80;;;2.93;;
3939;SDS011;1984;48.312;9.244;2022-09-12T07:50:27;2.60;;;2.40;;
3939;SDS011;1984;48.312;9.244;2022-09-12T07:52:53;2.90;;;2.57;;
3939;SDS011;1984;48.312;9.244;2022-09-12T07:55:19;3.13;;;2.70;;
3939;SDS011;1984;48.312;9.244;2022-09-12T07:57:49;3.40;;;3.03;;
3939;SDS011;1984;48.312;9.244;2022-09-12T08:00:15;8.07;;;2.37;;
3939;SDS011;1984;48.312;9.244;2022-09-12T08:02:41;8.77;;;6.40;;
3939;SDS011;1984;48.312;9.244;2022-09-12T08:05:06;5.40;;;4.00;;
3939;SDS011;1984;48.312;9.244;2022-09-12T08:07:32;2.90;;;2.60;;
3939;SDS011;1984;48.312;9.244;2022-09-12T08:09:58;3.10;;;1.90;;
3939;SDS011;1984;48.312;9.244;2022-09-12T08:12:24;3.13;;;1.60;;
3939;SDS011;1984;48.312;9.244;2022-09-12T08:14:51;2.90;;;1.47;;
3939;SDS011;1984;48.312;9.244;2022-09-12T08:17:17;2.90;;;1.40;;
3939;SDS011;1984;48.312;9.244;2022-09-12T08:19:43;4.43;;;1.30;;
3939;SDS011;1984;48.312;9.244;2022-09-12T08:22:09;1.20;;;1.10;;
3939;SDS011;1984;48.312;9.244;2022-09-12T08:24:35;2.00;;;1.00;;
3939;SDS011;1984;48.312;9.244;2022-09-12T08:27:01;1.13;;;0.80;;
3939;SDS011;1984;48.312;9.244;2022-09-12T08:29:26;1.27;;;1.17;;
3939;SDS011;1984;48.312;9.244;2022-09-12T08:31:52;2.40;;;1.13;;
3939;SDS011;1984;48.312;9.244;2022-09-12T08:34:17;1.27;;;1.20;;
3939;SDS011;1984;48.312;9.244;2022-09-12T08:36:43;4.50;;;1.70;;
3939;SDS011;1984;48.312;9.244;2022-09-12T08:39:11;1.20;;;1.10;;
3939;SDS011;1984;48.312;9.244;2022-09-12T08:41:39;3.60;;;1.03;;
3939;SDS011;1984;48.312;9.244;2022-09-12T08:44:25;2.60;;;1.20;;
3939;SDS011;1984;48.312;9.244;2022-09-12T08:52:24;0.90;;;0.90;;
3939;SDS011;1984;48.312;9.244;2022-09-12T08:54:59;1.83;;;1.07;;
3939;SDS011;1984;48.312;9.244;2022-09-12T08:57:26;1.37;;;0.90;;
3939;SDS011;1984;48.312;9.244;2022-09-12T08:59:52;3.07;;;1.20;;
3939;SDS011;1984;48.312;9.244;2022-09-12T09:05:23;0.97;;;0.93;;
3939;SDS011;1984;48.312;9.244;2022-09-12T09:16:41;1.80;;;0.90;;
3939;SDS011;1984;48.312;9.244;2022-09-12T09:19:20;1.33;;;1.07;;
3939;SDS011;1984;48.312;9.244;2022-09-12T09:21:55;1.10;;;1.00;;
3939;SDS011;1984;48.312;9.244;2022-09-12T09:24:25;1.00;;;1.00;;
3939;SDS011;1984;48.312;9.244;2022-09-12T09:27:03;1.40;;;1.30;;
3939;SDS011;1984;48.312;9.244;2022-09-12T09:29:42;1.57;;;0.80;;
3939;SDS011;1984;48.312;9.244;2022-09-12T09:32:13;2.40;;;1.20;;
3939;SDS011;1984;48.312;9.244;2022-09-12T09:34:50;1.07;;;1.03;;
3939;SDS011;1984;48.312;9.244;2022-09-12T09:40:22;0.90;;;0.90;;
3939;SDS011;1984;48.312;9.244;2022-09-12T09:43:00;0.80;;;0.80;;
3939;SDS011;1984;48.312;9.244;2022-09-12T09:45:37;2.10;;;1.00;;
3939;SDS011;1984;48.312;9.244;2022-09-12T09:50:45;1.30;;;1.20;;
3939;SDS011;1984;48.312;9.244;2022-09-12T09:53:21;6.33;;;0.80;;
3939;SDS011;1984;48.312;9.244;2022-09-12T09:55:48;2.30;;;1.30;;
3939;SDS011;1984;48.312;9.244;2022-09-12T09:58:37;1.30;;;1.30;;
3939;SDS011;1984;48.312;9.244;2022-09-12T10:01:03;0.73;;;0.73;;
3939;SDS011;1984;48.312;9.244;2022-09-12T10:03:31;2.10;;;1.17;;
3939;SDS011;1984;48.312;9.244;2022-09-12T10:08:44;1.10;;;0.80;;
3939;SDS011;1984;48.312;9.244;2022-09-12T10:16:25;0.90;;;0.90;;
3939;SDS011;1984;48.312;9.244;2022-09-12T10:18:52;3.70;;;0.87;;
3939;SDS011;1984;48.312;9.244;2022-09-12T10:21:44;1.70;;;1.00;;
3939;SDS011;1984;48.312;9.244;2022-09-12T10:24:22;0.70;;;0.70;;
3939;SDS011;1984;48.312;9.244;2022-09-12T10:27:04;1.27;;;1.00;;
3939;SDS011;1984;48.312;9.244;2022-09-12T10:29:33;2.10;;;1.10;;
3939;SDS011;1984;48.312;9.244;2022-09-12T10:32:26;0.93;;;0.83;;
3939;SDS011;1984;48.312;9.244;2022-09-12T10:35:00;0.97;;;0.80;;
3939;SDS011;1984;48.312;9.244;2022-09-12T10:37:34;0.63;;;0.63;;
3939;SDS011;1984;48.312;9.244;2022-09-12T10:40:04;0.97;;;0.97;;
3939;SDS011;1984;48.312;9.244;2022-09-12T10:45:29;1.57;;;0.83;;
3939;SDS011;1984;48.312;9.244;2022-09-12T10:47:57;0.70;;;0.70;;
3939;SDS011;1984;48.312;9.244;2022-09-12T10:50:25;1.33;;;1.00;;
3939;SDS011;1984;48.312;9.244;2022-09-12T10:52:53;0.60;;;0.60;;
3939;SDS011;1984;48.312;9.244;2022-09-12T10:55:27;1.00;;;0.70;;
3939;SDS011;1984;48.312;9.244;2022-09-12T10:58:10;0.80;;;0.70;;
3939;SDS011;1984;48.312;9.244;2022-09-12T11:00:58;0.67;;;0.67;;
3939;SDS011;1984;48.312;9.244;2022-09-12T11:03:58;0.93;;;0.93;;
3939;SDS011;1984;48.312;9.244;2022-09-12T11:06:46;0.60;;;0.60;;
3939;SDS011;1984;48.312;9.244;2022-09-12T11:09:33;0.60;;;0.60;;
3939;SDS011;1984;48.312;9.244;2022-09-12T11:34:47;0.70;;;0.70;;
3939;SDS011;1984;48.312;9.244;2022-09-12T11:39:55;1.33;;;0.83;;
3939;SDS011;1984;48.312;9.244;2022-09-12T11:42:29;1.10;;;1.00;;
3939;SDS011;1984;48.312;9.244;2022-09-12T11:45:19;0.60;;;0.60;;
3939;SDS011;1984;48.312;9.244;2022-09-12T11:47:51;0.80;;;0.73;;
3939;SDS011;1984;48.312;9.244;2022-09-12T11:50:26;0.80;;;0.80;;
3939;SDS011;1984;48.312;9.244;2022-09-12T11:52:56;1.90;;;0.90;;
3939;SDS011;1984;48.312;9.244;2022-09-12T11:55:38;0.60;;;0.50;;
3939;SDS011;1984;48.312;9.244;2022-09-12T11:58:14;0.60;;;0.60;;
3939;SDS011;1984;48.312;9.244;2022-09-12T12:00:49;0.70;;;0.70;;
3939;SDS011;1984;48.312;9.244;2022-09-12T12:06:11;0.80;;;0.80;;
3939;SDS011;1984;48.312;9.244;2022-09-12T12:08:45;0.80;;;0.80;;
3939;SDS011;1984;48.312;9.244;2022-09-12T12:11:24;0.70;;;0.70;;
3939;SDS011;1984;48.312;9.244;2022-09-12T12:13:58;0.80;;;0.80;;
3939;SDS011;1984;48.312;9.244;2022-09-12T12:16:28;0.87;;;0.87;;
3939;SDS011;1984;48.312;9.244;2022-09-12T12:18:57;1.20;;;0.80;;
3939;SDS011;1984;48.312;9.244;2022-09-12T12:24:09;0.90;;;0.90;;
3939;SDS011;1984;48.312;9.244;2022-09-12T12:44:56;0.70;;;0.70;;
3939;SDS011;1984;48.312;9.244;2022-09-12T12:47:27;0.60;;;0.60;;
3939;SDS011;1984;48.312;9.244;2022-09-12T12:49:58;2.00;;;0.70;;
3939;SDS011;1984;48.312;9.244;2022-09-12T12:52:41;0.60;;;0.60;;
3939;SDS011;1984;48.312;9.244;2022-09-12T12:55:20;1.10;;;0.70;;
3939;SDS011;1984;48.312;9.244;2022-09-12T12:57:50;0.80;;;0.80;;
3939;SDS011;1984;48.312;9.244;2022-09-12T13:05:24;1.63;;;0.83;;
3939;SDS011;1984;48.312;9.244;2022-09-12T13:07:52;2.00;;;1.07;;
3939;SDS011;1984;48.312;9.244;2022-09-12T13:10:30;0.70;;;0.70;;
3939;SDS011;1984;48.312;9.244;2022-09-12T13:12:57;0.70;;;0.70;;
3939;SDS011;1984;48.312;9.244;2022-09-12T13:18:01;0.93;;;0.70;;
3939;SDS011;1984;48.312;9.244;2022-09-12T13:20:35;5.97;;;0.97;;
3939;SDS011;1984;48.312;9.244;2022-09-12T13:23:19;10.23;;;0.90;;
3939;SDS011;1984;48.312;9.244;2022-09-12T13:25:51;2.60;;;0.90;;
3939;SDS011;1984;48.312;9.244;2022-09-12T13:28:18;0.77;;;0.77;;
3939;SDS011;1984;48.312;9.244;2022-09-12T13:30:45;0.80;;;0.80;;
3939;SDS011;1984;48.312;9.244;2022-09-12T13:44:07;1.73;;;0.70;;
3939;SDS011;1984;48.312;9.244;2022-09-12T13:46:34;0.60;;;0.60;;
3939;SDS011;1984;48.312;9.244;2022-09-12T13:49:04;0.90;;;0.60;;
3939;SDS011;1984;48.312;9.244;2022-09-12T13:51:43;0.60;;;0.60;;
3939;SDS011;1984;48.312;9.244;2022-09-12T13:54:11;1.03;;;0.70;;
3939;SDS011;1984;48.312;9.244;2022-09-12T13:56:48;0.70;;;0.60;;
3939;SDS011;1984;48.312;9.244;2022-09-12T13:59:14;1.60;;;0.80;;
3939;SDS011;1984;48.312;9.244;2022-09-12T14:01:40;2.90;;;0.73;;
3939;SDS011;1984;48.312;9.244;2022-09-12T14:04:18;1.07;;;0.83;;
3939;SDS011;1984;48.312;9.244;2022-09-12T14:07:18;0.60;;;0.60;;
3939;SDS011;1984;48.312;9.244;2022-09-12T14:09:53;0.70;;;0.70;;
3939;SDS011;1984;48.312;9.244;2022-09-12T14:12:24;10.70;;;0.80;;
3939;SDS011;1984;48.312;9.244;2022-09-12T14:14:54;1.30;;;1.20;;
3939;SDS011;1984;48.312;9.244;2022-09-12T14:17:26;1.00;;;1.00;;
3939;SDS011;1984;48.312;9.244;2022-09-12T14:20:10;0.80;;;0.80;;
3939;SDS011;1984;48.312;9.244;2022-09-12T14:22:39;0.67;;;0.67;;
3939;SDS011;1984;48.312;9.244;2022-09-12T14:25:05;0.90;;;0.80;;
3939;SDS011;1984;48.312;9.244;2022-09-12T14:27:40;1.07;;;0.97;;
3939;SDS011;1984;48.312;9.244;2022-09-12T14:30:20;1.70;;;1.00;;
3939;SDS011;1984;48.312;9.244;2022-09-12T14:33:11;0.70;;;0.70;;
3939;SDS011;1984;48.312;9.244;2022-09-12T14:35:43;1.00;;;0.80;;
3939;SDS011;1984;48.312;9.244;2022-09-12T14:40:52;2.60;;;0.80;;
3939;SDS011;1984;48.312;9.244;2022-09-12T14:43:25;7.90;;;1.00;;
3939;SDS011;1984;48.312;9.244;2022-09-12T14:45:54;1.60;;;1.50;;
3939;SDS011;1984;48.312;9.244;2022-09-12T14:48:35;2.50;;;1.67;;
3939;SDS011;1984;48.312;9.244;2022-09-12T14:51:07;3.43;;;0.90;;
3939;SDS011;1984;48.312;9.244;2022-09-12T14:53:33;1.00;;;0.90;;
3939;SDS011;1984;48.312;9.244;2022-09-12T14:56:10;1.00;;;0.90;;
3939;SDS011;1984;48.312;9.244;2022-09-12T14:58:37;1.57;;;1.00;;
3939;SDS011;1984;48.312;9.244;2022-09-12T15:09:02;1.30;;;0.90;;
3939;SDS011;1984;48.312;9.244;2022-09-12T15:11:30;2.93;;;0.77;;
3939;SDS011;1984;48.312;9.244;2022-09-12T15:13:57;0.80;;;0.80;;
3939;SDS011;1984;48.312;9.244;2022-09-12T15:16:30;1.03;;;1.03;;
3939;SDS011;1984;48.312;9.244;2022-09-12T15:18:55;1.63;;;1.00;;
3939;SDS011;1984;48.312;9.244;2022-09-12T15:21:21;5.40;;;0.90;;
3939;SDS011;1984;48.312;9.244;2022-09-12T15:23:49;0.80;;;0.80;;
3939;SDS011;1984;48.312;9.244;2022-09-12T15:26:20;0.77;;;0.77;;
3939;SDS011;1984;48.312;9.244;2022-09-12T15:28:47;1.63;;;0.87;;
3939;SDS011;1984;48.312;9.244;2022-09-12T15:33:47;0.90;;;0.90;;
3939;SDS011;1984;48.312;9.244;2022-09-12T15:36:14;1.23;;;0.73;;
3939;SDS011;1984;48.312;9.244;2022-09-12T15:38:41;1.50;;;0.80;;
3939;SDS011;1984;48.312;9.244;2022-09-12T15:41:12;0.83;;;0.80;;
3939;SDS011;1984;48.312;9.244;2022-09-12T15:43:40;1.33;;;1.00;;
3939;SDS011;1984;48.312;9.244;2022-09-12T15:46:08;4.37;;;0.70;;
3939;SDS011;1984;48.312;9.244;2022-09-12T15:48:35;0.67;;;0.67;;
3939;SDS011;1984;48.312;9.244;2022-09-12T15:51:01;2.60;;;1.80;;
3939;SDS011;1984;48.312;9.244;2022-09-12T15:53:28;3.60;;;1.30;;
3939;SDS011;1984;48.312;9.244;2022-09-12T15:55:54;2.00;;;1.10;;
3939;SDS011;1984;48.312;9.244;2022-09-12T15:58:20;8.23;;;0.90;;
3939;SDS011;1984;48.312;9.244;2022-09-12T16:00:45;5.63;;;1.03;;
3939;SDS011;1984;48.312;9.244;2022-09-12T16:03:16;1.60;;;0.83;;
3939;SDS011;1984;48.312;9.244;2022-09-12T16:05:48;3.00;;;0.83;;
3939;SDS011;1984;48.312;9.244;2022-09-12T16:08:19;3.60;;;0.90;;
3939;SDS011;1984;48.312;9.244;2022-09-12T16:10:44;1.80;;;0.80;;
3939;SDS011;1984;48.312;9.244;2022-09-12T16:13:13;2.23;;;1.10;;
3939;SDS011;1984;48.312;9.244;2022-09-12T16:15:38;0.60;;;0.60;;
3939;SDS011;1984;48.312;9.244;2022-09-12T16:18:04;3.13;;;0.77;;
3939;SDS011;1984;48.312;9.244;2022-09-12T16:20:30;1.80;;;0.90;;
3939;SDS011;1984;48.312;9.244;2022-09-12T16:22:55;0.93;;;0.80;;
3939;SDS011;1984;48.312;9.244;2022-09-12T16:25:21;0.70;;;0.70;;
3939;SDS011;1984;48.312;9.244;2022-09-12T16:27:46;3.37;;;1.10;;
3939;SDS011;1984;48.312;9.244;2022-09-12T16:30:12;4.07;;;1.20;;
3939;SDS011;1984;48.312;9.244;2022-09-12T16:32:38;1.07;;;0.97;;
3939;SDS011;1984;48.312;9.244;2022-09-12T16:35:04;0.80;;;0.70;;
3939;SDS011;1984;48.312;9.244;2022-09-12T16:37:30;1.17;;;1.07;;
3939;SDS011;1984;48.312;9.244;2022-09-12T16:39:58;1.93;;;1.50;;
3939;SDS011;1984;48.312;9.244;2022-09-12T16:42:24;2.40;;;1.03;;
3939;SDS011;1984;48.312;9.244;2022-09-12T16:44:49;0.80;;;0.80;;
3939;SDS011;1984;48.312;9.244;2022-09-12T16:47:15;1.80;;;0.93;;
3939;SDS011;1984;48.312;9.244;2022-09-12T16:49:41;2.13;;;1.07;;
3939;SDS011;1984;48.312;9.244;2022-09-12T16:54:34;0.80;;;0.80;;
3939;SDS011;1984;48.312;9.244;2022-09-12T16:57:00;2.47;;;1.10;;
3939;SDS011;1984;48.312;9.244;2022-09-12T16:59:26;0.97;;;0.80;;
3939;SDS011;1984;48.312;9.244;2022-09-12T17:01:52;3.53;;;0.70;;
3939;SDS011;1984;48.312;9.244;2022-09-12T17:04:17;1.47;;;1.00;;
3939;SDS011;1984;48.312;9.244;2022-09-12T17:06:43;1.77;;;0.90;;
3939;SDS011;1984;48.312;9.244;2022-09-12T17:09:09;1.00;;;1.00;;
3939;SDS011;1984;48.312;9.244;2022-09-12T17:11:36;14.23;;;1.00;;
3939;SDS011;1984;48.312;9.244;2022-09-12T17:14:03;3.43;;;0.90;;
3939;SDS011;1984;48.312;9.244;2022-09-12T17:16:34;2.97;;;1.13;;
3939;SDS011;1984;48.312;9.244;2022-09-12T17:19:02;1.17;;;1.00;;
3939;SDS011;1984;48.312;9.244;2022-09-12T17:21:28;21.47;;;1.53;;
3939;SDS011;1984;48.312;9.244;2022-09-12T17:23:53;1.30;;;1.20;;
3939;SDS011;1984;48.312;9.244;2022-09-12T17:26:19;3.00;;;0.83;;
3939;SDS011;1984;48.312;9.244;2022-09-12T17:28:45;0.80;;;0.80;;
3939;SDS011;1984;48.312;9.244;2022-09-12T17:31:11;2.50;;;1.00;;
3939;SDS011;1984;48.312;9.244;2022-09-12T17:33:38;0.80;;;0.80;;
3939;SDS011;1984;48.312;9.244;2022-09-12T17:36:05;1.00;;;1.00;;
3939;SDS011;1984;48.312;9.244;2022-09-12T17:38:33;1.00;;;1.00;;
3939;SDS011;1984;48.312;9.244;2022-09-12T17:41:07;4.40;;;1.10;;
3939;SDS011;1984;48.312;9.244;2022-09-12T17:43:43;1.30;;;1.23;;
3939;SDS011;1984;48.312;9.244;2022-09-12T17:46:10;1.30;;;1.20;;
3939;SDS011;1984;48.312;9.244;2022-09-12T17:48:36;2.10;;;1.20;;
3939;SDS011;1984;48.312;9.244;2022-09-12T17:51:05;3.40;;;1.10;;
3939;SDS011;1984;48.312;9.244;2022-09-12T17:53:35;1.20;;;1.00;;
3939;SDS011;1984;48.312;9.244;2022-09-12T17:56:01;1.00;;;1.00;;
3939;SDS011;1984;48.312;9.244;2022-09-12T17:58:28;1.73;;;1.30;;
3939;SDS011;1984;48.312;9.244;2022-09-12T18:01:02;2.43;;;1.70;;
3939;SDS011;1984;48.312;9.244;2022-09-12T18:03:48;3.50;;;1.50;;
3939;SDS011;1984;48.312;9.244;2022-09-12T18:06:14;1.33;;;1.20;;